sensor_id;sensor_type;location;lat;lon;timestamp;temperature;humidity
2577;DHT22;1298;51.252;6.802;2023-02-12T00:01:16;7.90;99.90
2577;DHT22;1298;51.252;6.802;2023-02-12T00:04:03;7.90;99.90
2577;DHT22;1298;51.252;6.802;2023-02-12T00:06:49;7.90;99.90
2577;DHT22;1298;51.252;6.802;2023-02-12T00:09:34;7.90;99.90
2577;DHT22;1298;51.252;6.802;2023-02-12T00:12:20;7.90;99.90
2577;DHT22;1298;51.252;6.802;2023-02-12T00:15:05;7.90;99.90
2577;DHT22;1298;51.252;6.802;2023-02-12T00:17:51;7.90;99.90
2577;DHT22;1298;51.252;6.802;2023-02-12T00:20:37;7.90;99.90
2577;DHT22;1298;51.252;6.802;2023-02-12T00:23:23;7.90;99.90
2577;DHT22;1298;51.252;6.802;2023-02-12T00:26:08;7.80;99.90
2577;DHT22;1298;51.252;6.802;2023-02-12T00:28:55;7.90;99.90
2577;DHT22;1298;51.252;6.802;2023-02-12T00:31:39;8.00;99.90
2577;DHT22;1298;51.252;6.802;2023-02-12T00:34:25;7.90;99.90
2577;DHT22;1298;51.252;6.802;2023-02-12T00:37:11;7.90;99.90
2577;DHT22;1298;51.252;6.802;2023-02-12T00:39:57;7.90;99.90
2577;DHT22;1298;51.252;6.802;2023-02-12T00:42:42;7.90;99.90
2577;DHT22;1298;51.252;6.802;2023-02-12T00:45:27;7.80;99.90
2577;DHT22;1298;51.252;6.802;2023-02-12T00:48:12;7.80;99.90
2577;DHT22;1298;51.252;6.802;2023-02-12T00:50:58;7.80;99.90
2577;DHT22;1298;51.252;6.802;2023-02-12T00:53:44;7.80;99.90
2577;DHT22;1298;51.252;6.802;2023-02-12T00:56:30;7.80;99.90
2577;DHT22;1298;51.252;6.802;2023-02-12T00:59:15;7.90;99.90
2577;DHT22;1298;51.252;6.802;2023-02-12T01:02:00;7.80;99.90
2577;DHT22;1298;51.252;6.802;2023-02-12T01:04:45;7.80;99.90
2577;DHT22;1298;51.252;6.802;2023-02-12T01:07:30;7.90;99.90
2577;DHT22;1298;51.252;6.802;2023-02-12T01:10:17;7.90;99.90
2577;DHT22;1298;51.252;6.802;2023-02-12T01:13:03;7.90;99.90
2577;DHT22;1298;51.252;6.802;2023-02-12T01:15:48;8.00;99.90
2577;DHT22;1298;51.252;6.802;2023-02-12T01:18:33;7.90;99.90
2577;DHT22;1298;51.252;6.802;2023-02-12T01:21:20;7.90;99.90
2577;DHT22;1298;51.252;6.802;2023-02-12T01:24:06;7.90;99.90
2577;DHT22;1298;51.252;6.802;2023-02-12T01:26:52;7.90;99.90
2577;DHT22;1298;51.252;6.802;2023-02-12T01:29:37;7.90;99.90
2577;DHT22;1298;51.252;6.802;2023-02-12T01:32:27;7.90;99.90
2577;DHT22;1298;51.252;6.802;2023-02-12T01:35:12;8.00;99.90
2577;DHT22;1298;51.252;6.802;2023-02-12T01:37:58;8.00;99.90
2577;DHT22;1298;51.252;6.802;2023-02-12T01:40:43;7.90;99.90
2577;DHT22;1298;51.252;6.802;2023-02-12T01:43:30;7.90;99.90
2577;DHT22;1298;51.252;6.802;2023-02-12T01:46:15;7.90;99.90
2577;DHT22;1298;51.252;6.802;2023-02-12T01:49:00;7.90;99.90
2577;DHT22;1298;51.252;6.802;2023-02-12T01:51:47;7.90;99.90
2577;DHT22;1298;51.252;6.802;2023-02-12T01:54:34;8.00;99.90
2577;DHT22;1298;51.252;6.802;2023-02-12T01:57:19;7.90;99.90
2577;DHT22;1298;51.252;6.802;2023-02-12T02:00:08;7.90;99.90
2577;DHT22;1298;51.252;6.802;2023-02-12T02:02:54;7.90;99.90
2577;DHT22;1298;51.252;6.802;2023-02-12T02:05:42;7.90;99.90
2577;DHT22;1298;51.252;6.802;2023-02-12T02:08:28;8.00;99.90
2577;DHT22;1298;51.252;6.802;2023-02-12T02:11:13;8.00;99.90
2577;DHT22;1298;51.252;6.802;2023-02-12T02:14:16;7.90;99.90
2577;DHT22;1298;51.252;6.802;2023-02-12T02:17:33;7.90;99.90
2577;DHT22;1298;51.252;6.802;2023-02-12T02:20:32;7.90;99.90
2577;DHT22;1298;51.252;6.802;2023-02-12T02:23:32;7.90;99.90
2577;DHT22;1298;51.252;6.802;2023-02-12T02:26:27;7.90;99.90
2577;DHT22;1298;51.252;6.802;2023-02-12T02:29:26;7.80;99.90
2577;DHT22;1298;51.252;6.802;2023-02-12T02:32:16;7.80;99.90
2577;DHT22;1298;51.252;6.802;2023-02-12T02:35:03;7.80;99.90
2577;DHT22;1298;51.252;6.802;2023-02-12T02:37:56;7.70;99.90
2577;DHT22;1298;51.252;6.802;2023-02-12T02:40:48;7.70;99.90
2577;DHT22;1298;51.252;6.802;2023-02-12T02:43:35;7.70;99.90
2577;DHT22;1298;51.252;6.802;2023-02-12T02:46:25;7.70;99.90
2577;DHT22;1298;51.252;6.802;2023-02-12T02:49:14;7.70;99.90
2577;DHT22;1298;51.252;6.802;2023-02-12T02:52:02;7.70;99.90
2577;DHT22;1298;51.252;6.802;2023-02-12T02:54:51;7.70;99.90
2577;DHT22;1298;51.252;6.802;2023-02-12T02:57:37;7.70;99.90
2577;DHT22;1298;51.252;6.802;2023-02-12T03:00:25;7.70;99.90
2577;DHT22;1298;51.252;6.802;2023-02-12T03:03:13;7.80;99.90
2577;DHT22;1298;51.252;6.802;2023-02-12T03:06:03;7.70;99.90
2577;DHT22;1298;51.252;6.802;2023-02-12T03:08:50;7.70;99.90
2577;DHT22;1298;51.252;6.802;2023-02-12T03:11:36;7.70;99.90
2577;DHT22;1298;51.252;6.802;2023-02-12T03:14:22;7.70;99.90
2577;DHT22;1298;51.252;6.802;2023-02-12T03:17:12;7.70;99.90
2577;DHT22;1298;51.252;6.802;2023-02-12T03:19:59;7.70;99.90
2577;DHT22;1298;51.252;6.802;2023-02-12T03:22:49;7.70;99.90
2577;DHT22;1298;51.252;6.802;2023-02-12T03:25:36;7.70;99.90
2577;DHT22;1298;51.252;6.802;2023-02-12T03:28:24;7.70;99.90
2577;DHT22;1298;51.252;6.802;2023-02-12T03:31:14;7.70;99.90
2577;DHT22;1298;51.252;6.802;2023-02-12T03:34:03;7.60;99.90
2577;DHT22;1298;51.252;6.802;2023-02-12T03:36:50;7.60;99.90
2577;DHT22;1298;51.252;6.802;2023-02-12T03:39:41;7.60;99.90
2577;DHT22;1298;51.252;6.802;2023-02-12T03:42:31;7.60;99.90
2577;DHT22;1298;51.252;6.802;2023-02-12T03:45:18;7.60;99.90
2577;DHT22;1298;51.252;6.802;2023-02-12T03:48:07;7.50;99.90
2577;DHT22;1298;51.252;6.802;2023-02-12T03:50:55;7.50;99.90
2577;DHT22;1298;51.252;6.802;2023-02-12T03:53:40;7.50;99.90
2577;DHT22;1298;51.252;6.802;2023-02-12T03:56:31;7.50;99.90
2577;DHT22;1298;51.252;6.802;2023-02-12T03:59:17;7.50;99.90
2577;DHT22;1298;51.252;6.802;2023-02-12T04:02:03;7.50;99.90
2577;DHT22;1298;51.252;6.802;2023-02-12T04:04:48;7.40;99.90
2577;DHT22;1298;51.252;6.802;2023-02-12T04:07:34;7.40;99.90
2577;DHT22;1298;51.252;6.802;2023-02-12T04:10:21;7.40;99.90
2577;DHT22;1298;51.252;6.802;2023-02-12T04:13:14;7.40;99.90
2577;DHT22;1298;51.252;6.802;2023-02-12T04:16:04;7.30;99.90
2577;DHT22;1298;51.252;6.802;2023-02-12T04:18:51;7.30;99.90
2577;DHT22;1298;51.252;6.802;2023-02-12T04:21:42;7.30;99.90
2577;DHT22;1298;51.252;6.802;2023-02-12T04:24:31;7.30;99.90
2577;DHT22;1298;51.252;6.802;2023-02-12T04:27:20;7.40;99.90
2577;DHT22;1298;51.252;6.802;2023-02-12T04:30:10;7.40;99.90
2577;DHT22;1298;51.252;6.802;2023-02-12T04:32:58;7.40;99.90
2577;DHT22;1298;51.252;6.802;2023-02-12T04:35:46;7.40;99.90
2577;DHT22;1298;51.252;6.802;2023-02-12T04:38:33;7.40;99.90
2577;DHT22;1298;51.252;6.802;2023-02-12T04:41:20;7.40;99.90
2577;DHT22;1298;51.252;6.802;2023-02-12T04:44:12;7.40;99.90
2577;DHT22;1298;51.252;6.802;2023-02-12T04:46:59;7.40;99.90
2577;DHT22;1298;51.252;6.802;2023-02-12T04:49:44;7.40;99.90
2577;DHT22;1298;51.252;6.802;2023-02-12T04:52:29;7.40;99.90
2577;DHT22;1298;51.252;6.802;2023-02-12T04:55:15;7.40;99.90
2577;DHT22;1298;51.252;6.802;2023-02-12T04:58:00;7.30;99.90
2577;DHT22;1298;51.252;6.802;2023-02-12T05:00:45;7.30;99.90
2577;DHT22;1298;51.252;6.802;2023-02-12T05:03:32;7.40;99.90
2577;DHT22;1298;51.252;6.802;2023-02-12T05:06:18;7.30;99.90
2577;DHT22;1298;51.252;6.802;2023-02-12T05:09:03;7.30;99.90
2577;DHT22;1298;51.252;6.802;2023-02-12T05:11:49;7.30;99.90
2577;DHT22;1298;51.252;6.802;2023-02-12T05:14:35;7.30;99.90
2577;DHT22;1298;51.252;6.802;2023-02-12T05:17:20;7.30;99.90
2577;DHT22;1298;51.252;6.802;2023-02-12T05:20:08;7.30;99.90
2577;DHT22;1298;51.252;6.802;2023-02-12T05:22:54;7.30;99.90
2577;DHT22;1298;51.252;6.802;2023-02-12T05:25:40;7.30;99.90
2577;DHT22;1298;51.252;6.802;2023-02-12T05:28:25;7.30;99.90
2577;DHT22;1298;51.252;6.802;2023-02-12T05:31:11;7.30;99.90
2577;DHT22;1298;51.252;6.802;2023-02-12T05:33:57;7.30;99.90
2577;DHT22;1298;51.252;6.802;2023-02-12T05:36:43;7.30;99.90
2577;DHT22;1298;51.252;6.802;2023-02-12T05:39:29;7.40;99.90
2577;DHT22;1298;51.252;6.802;2023-02-12T05:42:14;7.40;99.90
2577;DHT22;1298;51.252;6.802;2023-02-12T05:44:59;7.40;99.90
2577;DHT22;1298;51.252;6.802;2023-02-12T05:47:45;7.40;99.90
2577;DHT22;1298;51.252;6.802;2023-02-12T05:50:30;7.40;99.90
2577;DHT22;1298;51.252;6.802;2023-02-12T05:53:16;7.40;99.90
2577;DHT22;1298;51.252;6.802;2023-02-12T05:56:06;7.40;99.90
2577;DHT22;1298;51.252;6.802;2023-02-12T05:58:53;7.50;99.90
2577;DHT22;1298;51.252;6.802;2023-02-12T06:01:40;7.40;99.90
2577;DHT22;1298;51.252;6.802;2023-02-12T06:04:27;7.40;99.90
2577;DHT22;1298;51.252;6.802;2023-02-12T06:07:12;7.40;99.90
2577;DHT22;1298;51.252;6.802;2023-02-12T06:09:59;7.40;99.90
2577;DHT22;1298;51.252;6.802;2023-02-12T06:12:44;7.40;99.90
2577;DHT22;1298;51.252;6.802;2023-02-12T06:15:29;7.40;99.90
2577;DHT22;1298;51.252;6.802;2023-02-12T06:18:15;7.40;99.90
2577;DHT22;1298;51.252;6.802;2023-02-12T06:21:01;7.40;99.90
2577;DHT22;1298;51.252;6.802;2023-02-12T06:23:47;7.40;99.90
2577;DHT22;1298;51.252;6.802;2023-02-12T06:26:33;7.40;99.90
2577;DHT22;1298;51.252;6.802;2023-02-12T06:29:20;7.40;99.90
2577;DHT22;1298;51.252;6.802;2023-02-12T06:32:06;7.40;99.90
2577;DHT22;1298;51.252;6.802;2023-02-12T06:34:51;7.40;99.90
2577;DHT22;1298;51.252;6.802;2023-02-12T06:37:37;7.40;99.90
2577;DHT22;1298;51.252;6.802;2023-02-12T06:40:22;7.40;99.90
2577;DHT22;1298;51.252;6.802;2023-02-12T06:43:10;7.50;99.90
2577;DHT22;1298;51.252;6.802;2023-02-12T06:45:55;7.50;99.90
2577;DHT22;1298;51.252;6.802;2023-02-12T06:48:44;7.50;99.90
2577;DHT22;1298;51.252;6.802;2023-02-12T06:51:29;7.50;99.90
2577;DHT22;1298;51.252;6.802;2023-02-12T06:54:16;7.50;99.90
2577;DHT22;1298;51.252;6.802;2023-02-12T06:57:01;7.50;99.90
2577;DHT22;1298;51.252;6.802;2023-02-12T06:59:49;7.50;99.90
2577;DHT22;1298;51.252;6.802;2023-02-12T07:02:34;7.60;99.90
2577;DHT22;1298;51.252;6.802;2023-02-12T07:05:20;7.50;99.90
2577;DHT22;1298;51.252;6.802;2023-02-12T07:08:05;7.50;99.90
2577;DHT22;1298;51.252;6.802;2023-02-12T07:10:50;7.50;99.90
2577;DHT22;1298;51.252;6.802;2023-02-12T07:13:35;7.50;99.90
2577;DHT22;1298;51.252;6.802;2023-02-12T07:16:22;7.50;99.90
2577;DHT22;1298;51.252;6.802;2023-02-12T07:19:08;7.50;99.90
2577;DHT22;1298;51.252;6.802;2023-02-12T07:21:55;7.50;99.90
2577;DHT22;1298;51.252;6.802;2023-02-12T07:24:41;7.60;99.90
2577;DHT22;1298;51.252;6.802;2023-02-12T07:27:26;7.60;99.90
2577;DHT22;1298;51.252;6.802;2023-02-12T07:30:12;7.70;99.90
2577;DHT22;1298;51.252;6.802;2023-02-12T07:32:58;7.70;99.90
2577;DHT22;1298;51.252;6.802;2023-02-12T07:35:43;7.70;99.90
2577;DHT22;1298;51.252;6.802;2023-02-12T07:38:29;7.70;99.90
2577;DHT22;1298;51.252;6.802;2023-02-12T07:41:15;7.80;99.90
2577;DHT22;1298;51.252;6.802;2023-02-12T07:44:01;7.80;99.90
2577;DHT22;1298;51.252;6.802;2023-02-12T07:46:49;7.80;99.90
2577;DHT22;1298;51.252;6.802;2023-02-12T07:49:36;7.80;99.90
2577;DHT22;1298;51.252;6.802;2023-02-12T07:52:22;7.80;99.90
2577;DHT22;1298;51.252;6.802;2023-02-12T07:55:07;7.90;99.90
2577;DHT22;1298;51.252;6.802;2023-02-12T07:57:53;7.80;99.90
2577;DHT22;1298;51.252;6.802;2023-02-12T08:00:38;7.80;99.90
2577;DHT22;1298;51.252;6.802;2023-02-12T08:03:23;7.80;99.90
2577;DHT22;1298;51.252;6.802;2023-02-12T08:06:10;7.80;99.90
2577;DHT22;1298;51.252;6.802;2023-02-12T08:08:57;7.90;99.90
2577;DHT22;1298;51.252;6.802;2023-02-12T08:11:43;7.90;99.90
2577;DHT22;1298;51.252;6.802;2023-02-12T08:14:28;8.00;99.90
2577;DHT22;1298;51.252;6.802;2023-02-12T08:17:13;8.10;99.90
2577;DHT22;1298;51.252;6.802;2023-02-12T08:19:59;8.10;99.90
2577;DHT22;1298;51.252;6.802;2023-02-12T08:22:45;8.10;99.90
2577;DHT22;1298;51.252;6.802;2023-02-12T08:25:31;8.20;99.90
2577;DHT22;1298;51.252;6.802;2023-02-12T08:28:16;8.20;99.90
2577;DHT22;1298;51.252;6.802;2023-02-12T08:31:02;8.30;99.90
2577;DHT22;1298;51.252;6.802;2023-02-12T08:33:48;8.40;99.90
2577;DHT22;1298;51.252;6.802;2023-02-12T08:36:35;8.40;99.90
2577;DHT22;1298;51.252;6.802;2023-02-12T08:39:22;8.50;99.90
2577;DHT22;1298;51.252;6.802;2023-02-12T08:42:08;8.50;99.90
2577;DHT22;1298;51.252;6.802;2023-02-12T08:44:53;8.60;99.90
2577;DHT22;1298;51.252;6.802;2023-02-12T08:47:38;8.60;99.90
2577;DHT22;1298;51.252;6.802;2023-02-12T08:50:23;8.60;99.90
2577;DHT22;1298;51.252;6.802;2023-02-12T08:53:09;8.50;99.90
2577;DHT22;1298;51.252;6.802;2023-02-12T08:55:55;8.60;99.90
2577;DHT22;1298;51.252;6.802;2023-02-12T08:58:40;8.60;99.90
2577;DHT22;1298;51.252;6.802;2023-02-12T09:01:27;8.70;99.90
2577;DHT22;1298;51.252;6.802;2023-02-12T09:04:13;8.70;99.90
2577;DHT22;1298;51.252;6.802;2023-02-12T09:07:01;8.80;99.90
2577;DHT22;1298;51.252;6.802;2023-02-12T09:09:46;9.00;99.90
2577;DHT22;1298;51.252;6.802;2023-02-12T09:12:32;9.10;99.90
2577;DHT22;1298;51.252;6.802;2023-02-12T09:15:17;9.10;99.90
2577;DHT22;1298;51.252;6.802;2023-02-12T09:18:03;9.20;99.90
2577;DHT22;1298;51.252;6.802;2023-02-12T09:20:48;9.20;99.90
2577;DHT22;1298;51.252;6.802;2023-02-12T09:23:33;9.30;99.90
2577;DHT22;1298;51.252;6.802;2023-02-12T09:26:20;9.40;99.90
2577;DHT22;1298;51.252;6.802;2023-02-12T09:29:07;9.60;99.90
2577;DHT22;1298;51.252;6.802;2023-02-12T09:31:52;9.70;99.90
2577;DHT22;1298;51.252;6.802;2023-02-12T09:34:37;9.90;99.90
2577;DHT22;1298;51.252;6.802;2023-02-12T09:37:22;10.00;99.90
2577;DHT22;1298;51.252;6.802;2023-02-12T09:40:09;10.10;99.90
2577;DHT22;1298;51.252;6.802;2023-02-12T09:43:05;10.10;99.90
2577;DHT22;1298;51.252;6.802;2023-02-12T09:45:56;10.20;99.90
2577;DHT22;1298;51.252;6.802;2023-02-12T09:48:48;10.30;99.90
2577;DHT22;1298;51.252;6.802;2023-02-12T09:51:38;10.40;99.90
2577;DHT22;1298;51.252;6.802;2023-02-12T09:54:25;10.50;99.90
2577;DHT22;1298;51.252;6.802;2023-02-12T09:57:14;10.40;99.90
2577;DHT22;1298;51.252;6.802;2023-02-12T10:00:03;10.50;99.90
2577;DHT22;1298;51.252;6.802;2023-02-12T10:02:51;10.50;99.90
2577;DHT22;1298;51.252;6.802;2023-02-12T10:05:37;10.50;99.90
2577;DHT22;1298;51.252;6.802;2023-02-12T10:08:27;10.60;99.90
2577;DHT22;1298;51.252;6.802;2023-02-12T10:11:21;10.60;99.90
2577;DHT22;1298;51.252;6.802;2023-02-12T10:14:19;10.80;99.90
2577;DHT22;1298;51.252;6.802;2023-02-12T10:17:10;10.70;99.90
2577;DHT22;1298;51.252;6.802;2023-02-12T10:23:05;10.40;99.90
2577;DHT22;1298;51.252;6.802;2023-02-12T10:25:53;10.50;99.90
2577;DHT22;1298;51.252;6.802;2023-02-12T10:28:40;10.70;99.90
2577;DHT22;1298;51.252;6.802;2023-02-12T10:31:26;10.80;99.90
2577;DHT22;1298;51.252;6.802;2023-02-12T10:34:14;10.60;99.90
2577;DHT22;1298;51.252;6.802;2023-02-12T10:37:02;10.60;99.90
2577;DHT22;1298;51.252;6.802;2023-02-12T10:39:51;10.60;99.90
2577;DHT22;1298;51.252;6.802;2023-02-12T10:42:39;10.60;99.90
2577;DHT22;1298;51.252;6.802;2023-02-12T10:45:28;10.60;99.90
2577;DHT22;1298;51.252;6.802;2023-02-12T10:48:15;10.50;99.90
2577;DHT22;1298;51.252;6.802;2023-02-12T10:51:15;10.40;99.90
2577;DHT22;1298;51.252;6.802;2023-02-12T10:57:14;10.50;99.90
2577;DHT22;1298;51.252;6.802;2023-02-12T11:00:13;10.70;99.90
2577;DHT22;1298;51.252;6.802;2023-02-12T11:03:03;10.60;99.90
2577;DHT22;1298;51.252;6.802;2023-02-12T11:05:49;10.50;99.90
2577;DHT22;1298;51.252;6.802;2023-02-12T11:08:35;10.50;99.90
2577;DHT22;1298;51.252;6.802;2023-02-12T11:11:22;10.60;99.90
2577;DHT22;1298;51.252;6.802;2023-02-12T11:14:15;10.80;99.90
2577;DHT22;1298;51.252;6.802;2023-02-12T11:17:02;10.90;99.90
2577;DHT22;1298;51.252;6.802;2023-02-12T11:19:47;11.00;99.90
2577;DHT22;1298;51.252;6.802;2023-02-12T11:22:49;11.00;99.90
2577;DHT22;1298;51.252;6.802;2023-02-12T11:25:36;10.90;99.90
2577;DHT22;1298;51.252;6.802;2023-02-12T11:28:21;11.00;99.90
2577;DHT22;1298;51.252;6.802;2023-02-12T11:31:19;11.00;99.90
2577;DHT22;1298;51.252;6.802;2023-02-12T11:34:06;10.90;99.90
2577;DHT22;1298;51.252;6.802;2023-02-12T11:36:52;10.90;99.90
2577;DHT22;1298;51.252;6.802;2023-02-12T11:39:38;10.90;99.90
2577;DHT22;1298;51.252;6.802;2023-02-12T11:42:33;10.90;99.90
2577;DHT22;1298;51.252;6.802;2023-02-12T11:45:20;11.00;99.90
2577;DHT22;1298;51.252;6.802;2023-02-12T11:48:11;11.00;99.90
2577;DHT22;1298;51.252;6.802;2023-02-12T11:51:01;11.10;99.90
2577;DHT22;1298;51.252;6.802;2023-02-12T11:53:47;11.10;99.90
2577;DHT22;1298;51.252;6.802;2023-02-12T11:56:43;11.10;99.90
2577;DHT22;1298;51.252;6.802;2023-02-12T11:59:32;11.20;99.90
2577;DHT22;1298;51.252;6.802;2023-02-12T12:02:21;11.20;99.90
2577;DHT22;1298;51.252;6.802;2023-02-12T12:05:10;11.20;99.90
2577;DHT22;1298;51.252;6.802;2023-02-12T12:07:58;11.30;99.90
2577;DHT22;1298;51.252;6.802;2023-02-12T12:10:48;11.30;99.90
2577;DHT22;1298;51.252;6.802;2023-02-12T12:13:37;11.30;99.90
2577;DHT22;1298;51.252;6.802;2023-02-12T12:16:24;11.40;99.90
2577;DHT22;1298;51.252;6.802;2023-02-12T12:19:31;11.40;99.90
2577;DHT22;1298;51.252;6.802;2023-02-12T12:22:41;11.40;99.90
2577;DHT22;1298;51.252;6.802;2023-02-12T12:25:27;11.20;99.90
2577;DHT22;1298;51.252;6.802;2023-02-12T12:28:21;11.30;99.90
2577;DHT22;1298;51.252;6.802;2023-02-12T12:31:12;11.40;99.90
2577;DHT22;1298;51.252;6.802;2023-02-12T12:34:01;11.30;99.90
2577;DHT22;1298;51.252;6.802;2023-02-12T12:36:52;11.30;99.90
2577;DHT22;1298;51.252;6.802;2023-02-12T12:39:44;11.30;99.90
2577;DHT22;1298;51.252;6.802;2023-02-12T12:42:39;11.40;99.90
2577;DHT22;1298;51.252;6.802;2023-02-12T12:45:34;11.50;99.90
2577;DHT22;1298;51.252;6.802;2023-02-12T12:48:25;11.40;99.90
2577;DHT22;1298;51.252;6.802;2023-02-12T12:51:17;11.40;99.90
2577;DHT22;1298;51.252;6.802;2023-02-12T12:54:11;11.50;99.90
2577;DHT22;1298;51.252;6.802;2023-02-12T12:57:04;11.50;99.90
2577;DHT22;1298;51.252;6.802;2023-02-12T12:59:58;11.30;99.90
2577;DHT22;1298;51.252;6.802;2023-02-12T13:02:57;11.20;99.90
2577;DHT22;1298;51.252;6.802;2023-02-12T13:05:58;11.30;99.90
2577;DHT22;1298;51.252;6.802;2023-02-12T13:08:59;11.30;99.90
2577;DHT22;1298;51.252;6.802;2023-02-12T13:11:50;11.40;99.90
2577;DHT22;1298;51.252;6.802;2023-02-12T13:14:41;11.30;99.90
2577;DHT22;1298;51.252;6.802;2023-02-12T13:17:28;11.30;99.90
2577;DHT22;1298;51.252;6.802;2023-02-12T13:20:19;11.20;99.90
2577;DHT22;1298;51.252;6.802;2023-02-12T13:23:09;11.30;99.90
2577;DHT22;1298;51.252;6.802;2023-02-12T13:25:58;11.40;99.90
2577;DHT22;1298;51.252;6.802;2023-02-12T13:28:46;11.40;99.90
2577;DHT22;1298;51.252;6.802;2023-02-12T13:31:35;11.40;99.90
2577;DHT22;1298;51.252;6.802;2023-02-12T13:34:23;11.30;99.90
2577;DHT22;1298;51.252;6.802;2023-02-12T13:37:13;11.30;99.90
2577;DHT22;1298;51.252;6.802;2023-02-12T13:39:59;11.30;99.90
2577;DHT22;1298;51.252;6.802;2023-02-12T13:42:48;11.40;99.90
2577;DHT22;1298;51.252;6.802;2023-02-12T13:45:37;11.50;99.90
2577;DHT22;1298;51.252;6.802;2023-02-12T13:48:32;11.50;99.90
2577;DHT22;1298;51.252;6.802;2023-02-12T13:51:20;11.40;99.90
2577;DHT22;1298;51.252;6.802;2023-02-12T13:54:16;11.50;99.90
2577;DHT22;1298;51.252;6.802;2023-02-12T13:57:07;11.40;99.90
2577;DHT22;1298;51.252;6.802;2023-02-12T13:59:53;11.50;99.90
2577;DHT22;1298;51.252;6.802;2023-02-12T14:02:41;11.50;99.90
2577;DHT22;1298;51.252;6.802;2023-02-12T14:05:29;11.50;99.90
2577;DHT22;1298;51.252;6.802;2023-02-12T14:08:26;11.50;99.90
2577;DHT22;1298;51.252;6.802;2023-02-12T14:11:16;11.50;99.90
2577;DHT22;1298;51.252;6.802;2023-02-12T14:14:02;11.50;99.90
2577;DHT22;1298;51.252;6.802;2023-02-12T14:16:48;11.50;99.90
2577;DHT22;1298;51.252;6.802;2023-02-12T14:22:59;11.40;99.90
2577;DHT22;1298;51.252;6.802;2023-02-12T14:25:45;11.30;99.90
2577;DHT22;1298;51.252;6.802;2023-02-12T14:28:39;11.30;99.90
2577;DHT22;1298;51.252;6.802;2023-02-12T14:34:37;11.30;99.90
2577;DHT22;1298;51.252;6.802;2023-02-12T14:37:35;11.30;99.90
2577;DHT22;1298;51.252;6.802;2023-02-12T14:40:39;11.20;99.90
2577;DHT22;1298;51.252;6.802;2023-02-12T14:43:33;11.30;99.90
2577;DHT22;1298;51.252;6.802;2023-02-12T14:46:42;11.30;99.90
2577;DHT22;1298;51.252;6.802;2023-02-12T14:49:29;11.30;99.90
2577;DHT22;1298;51.252;6.802;2023-02-12T14:52:17;11.20;99.90
2577;DHT22;1298;51.252;6.802;2023-02-12T14:55:04;11.20;99.90
2577;DHT22;1298;51.252;6.802;2023-02-12T14:57:51;11.20;99.90
2577;DHT22;1298;51.252;6.802;2023-02-12T15:00:39;11.20;99.90
2577;DHT22;1298;51.252;6.802;2023-02-12T15:03:28;11.20;99.90
2577;DHT22;1298;51.252;6.802;2023-02-12T15:06:15;11.10;99.90
2577;DHT22;1298;51.252;6.802;2023-02-12T15:09:05;11.10;99.90
2577;DHT22;1298;51.252;6.802;2023-02-12T15:11:54;11.10;99.90
2577;DHT22;1298;51.252;6.802;2023-02-12T15:14:44;11.10;99.90
2577;DHT22;1298;51.252;6.802;2023-02-12T15:17:33;11.00;99.90
2577;DHT22;1298;51.252;6.802;2023-02-12T15:20:22;11.00;99.90
2577;DHT22;1298;51.252;6.802;2023-02-12T15:23:28;10.90;99.90
2577;DHT22;1298;51.252;6.802;2023-02-12T15:26:15;10.90;99.90
2577;DHT22;1298;51.252;6.802;2023-02-12T15:29:01;10.90;99.90
2577;DHT22;1298;51.252;6.802;2023-02-12T15:31:52;10.80;99.90
2577;DHT22;1298;51.252;6.802;2023-02-12T15:34:38;10.80;99.90
2577;DHT22;1298;51.252;6.802;2023-02-12T15:37:25;10.80;99.90
2577;DHT22;1298;51.252;6.802;2023-02-12T15:40:12;10.80;99.90
2577;DHT22;1298;51.252;6.802;2023-02-12T15:42:59;10.70;99.90
2577;DHT22;1298;51.252;6.802;2023-02-12T15:45:48;10.70;99.90
2577;DHT22;1298;51.252;6.802;2023-02-12T15:48:35;10.70;99.90
2577;DHT22;1298;51.252;6.802;2023-02-12T15:51:25;10.70;99.90
2577;DHT22;1298;51.252;6.802;2023-02-12T15:54:11;10.60;99.90
2577;DHT22;1298;51.252;6.802;2023-02-12T15:56:59;10.60;99.90
2577;DHT22;1298;51.252;6.802;2023-02-12T15:59:47;10.70;99.90
2577;DHT22;1298;51.252;6.802;2023-02-12T16:02:33;10.70;99.90
2577;DHT22;1298;51.252;6.802;2023-02-12T16:05:20;10.70;99.90
2577;DHT22;1298;51.252;6.802;2023-02-12T16:08:05;10.70;99.90
2577;DHT22;1298;51.252;6.802;2023-02-12T16:10:51;10.70;99.90
2577;DHT22;1298;51.252;6.802;2023-02-12T16:13:37;10.60;99.90
2577;DHT22;1298;51.252;6.802;2023-02-12T16:16:25;10.60;99.90
2577;DHT22;1298;51.252;6.802;2023-02-12T16:19:16;10.50;99.90
2577;DHT22;1298;51.252;6.802;2023-02-12T16:22:06;10.40;99.90
2577;DHT22;1298;51.252;6.802;2023-02-12T16:24:53;10.40;99.90
2577;DHT22;1298;51.252;6.802;2023-02-12T16:27:39;10.40;99.90
2577;DHT22;1298;51.252;6.802;2023-02-12T16:30:25;10.30;99.90
2577;DHT22;1298;51.252;6.802;2023-02-12T16:36:12;10.30;99.90
2577;DHT22;1298;51.252;6.802;2023-02-12T16:39:00;10.30;99.90
2577;DHT22;1298;51.252;6.802;2023-02-12T16:41:49;10.20;99.90
2577;DHT22;1298;51.252;6.802;2023-02-12T16:44:35;10.20;99.90
2577;DHT22;1298;51.252;6.802;2023-02-12T16:47:20;10.30;99.90
2577;DHT22;1298;51.252;6.802;2023-02-12T16:50:13;10.20;99.90
2577;DHT22;1298;51.252;6.802;2023-02-12T16:53:00;10.20;99.90
2577;DHT22;1298;51.252;6.802;2023-02-12T16:55:46;10.20;99.90
2577;DHT22;1298;51.252;6.802;2023-02-12T16:58:32;10.10;99.90
2577;DHT22;1298;51.252;6.802;2023-02-12T17:01:19;10.10;99.90
2577;DHT22;1298;51.252;6.802;2023-02-12T17:04:05;10.10;99.90
2577;DHT22;1298;51.252;6.802;2023-02-12T17:06:51;10.10;99.90
2577;DHT22;1298;51.252;6.802;2023-02-12T17:09:36;10.10;99.90
2577;DHT22;1298;51.252;6.802;2023-02-12T17:12:22;10.10;99.90
2577;DHT22;1298;51.252;6.802;2023-02-12T17:15:09;10.10;99.90
2577;DHT22;1298;51.252;6.802;2023-02-12T17:17:54;10.10;99.90
2577;DHT22;1298;51.252;6.802;2023-02-12T17:20:39;10.00;99.90
2577;DHT22;1298;51.252;6.802;2023-02-12T17:23:25;10.00;99.90
2577;DHT22;1298;51.252;6.802;2023-02-12T17:26:10;10.00;99.90
2577;DHT22;1298;51.252;6.802;2023-02-12T17:28:57;10.00;99.90
2577;DHT22;1298;51.252;6.802;2023-02-12T17:31:48;10.00;99.90
2577;DHT22;1298;51.252;6.802;2023-02-12T17:34:36;10.00;99.90
2577;DHT22;1298;51.252;6.802;2023-02-12T17:37:21;10.00;99.90
2577;DHT22;1298;51.252;6.802;2023-02-12T17:40:08;10.00;99.90
2577;DHT22;1298;51.252;6.802;2023-02-12T17:42:54;10.00;99.90
2577;DHT22;1298;51.252;6.802;2023-02-12T17:45:42;10.00;99.90
2577;DHT22;1298;51.252;6.802;2023-02-12T17:48:27;10.00;99.90
2577;DHT22;1298;51.252;6.802;2023-02-12T17:51:12;10.00;99.90
2577;DHT22;1298;51.252;6.802;2023-02-12T17:53:58;10.00;99.90
2577;DHT22;1298;51.252;6.802;2023-02-12T17:56:43;9.90;99.90
2577;DHT22;1298;51.252;6.802;2023-02-12T17:59:28;9.90;99.90
2577;DHT22;1298;51.252;6.802;2023-02-12T18:02:14;9.90;99.90
2577;DHT22;1298;51.252;6.802;2023-02-12T18:05:00;10.00;99.90
2577;DHT22;1298;51.252;6.802;2023-02-12T18:07:45;9.90;99.90
2577;DHT22;1298;51.252;6.802;2023-02-12T18:10:30;9.90;99.90
2577;DHT22;1298;51.252;6.802;2023-02-12T18:13:17;9.80;99.90
2577;DHT22;1298;51.252;6.802;2023-02-12T18:16:04;9.90;99.90
2577;DHT22;1298;51.252;6.802;2023-02-12T18:18:51;9.90;99.90
2577;DHT22;1298;51.252;6.802;2023-02-12T18:21:37;9.90;99.90
2577;DHT22;1298;51.252;6.802;2023-02-12T18:24:22;9.80;99.90
2577;DHT22;1298;51.252;6.802;2023-02-12T18:27:07;9.80;99.90
2577;DHT22;1298;51.252;6.802;2023-02-12T18:29:52;9.80;99.90
2577;DHT22;1298;51.252;6.802;2023-02-12T18:32:39;9.80;99.90
2577;DHT22;1298;51.252;6.802;2023-02-12T18:35:27;9.80;99.90
2577;DHT22;1298;51.252;6.802;2023-02-12T18:38:13;9.80;99.90
2577;DHT22;1298;51.252;6.802;2023-02-12T18:40:58;9.70;99.90